Etusivu
METAR-TAF:

METAR-TAF

Lentoasemat :

Strasbourg, Ranska

Leveyspiiri: 48-33N, Pituuspiiri: 007-38E, korkeus merenpinnasta: 153 m

Tämänhetkinen sää

Tämä raportti tehtiin 21 minuuttia sitten, kello 18.00 UTC
Tuuli 5 kn pohjoisesta/koillisesta
Lämpötila 25°C
Kosteus 50%
Ilmanpaine 1019 hPa
Näkyvyys 10 km tai enemmän
ei pilviä alle 1500 m:ssä eikä cumulonimbus-pilviä

METAR: LFST 151800Z AUTO 02005KT CAVOK 25/14 Q1019 NOSIG

Aika: 20:21 (18:21 UTC)

Sääennuste

Tämä raportti tehtiin 1 tunti ja 21 minuuttia sitten, kello 17.00 UTC
Ennuste voimassa 15. päivästä klo 18 UTC - 16. päivään klo 18 UTC
Tuuli 4 kn eri suunnista
Näkyvyys 10 km tai enemmän
Hajanaisia pilviä 5500 ft:n korkeudessa

TAF: LFST 151700Z 1518/1618 VRB04KT 9999 SCT055

Säähavainnot ja -ennusteet yli 4000 lentoasemalta (METAR- ja TAF-raportit).

Käytössä olevat sääasemat on merkitty karttaan keltaisilla ja punaisilla pisteillä.

Aseta hiiri pisteen päälle nähdäksesi sääaseman nimen.

Klikkaa sitten nähdäksesi säähavainnot ja -ennusteet.

Kartan vaihtaminen: klikkaa mustalla rastilla varustettuja vihreitä pisteitä, niin voit zoomata sisään; viivalla varustettua vihreää pistettä, niin voit zoomata ulos tai vihreitä nuolia, niin pääset viereisille kartoille.


METAR-TAF: